createdAt,value
2022-10-31T00:01:32.204Z,18.60
2022-10-31T00:04:00.337Z,16.17
2022-10-31T00:06:28.191Z,16.10
2022-10-31T00:08:58.916Z,20.65
2022-10-31T00:11:26.922Z,20.35
2022-10-31T00:13:54.805Z,16.13
2022-10-31T00:16:25.067Z,20.95
2022-10-31T00:19:04.559Z,19.23
2022-10-31T00:21:33.462Z,20.02
2022-10-31T00:24:04.938Z,22.15
2022-10-31T00:26:33.057Z,19.23
2022-10-31T00:29:01.423Z,20.48
2022-10-31T00:31:29.118Z,26.85
2022-10-31T00:33:58.293Z,13.43
2022-10-31T00:36:28.342Z,16.55
2022-10-31T00:38:56.274Z,20.30
2022-10-31T00:41:25.371Z,12.82
2022-10-31T00:43:52.977Z,18.35
2022-10-31T00:46:20.695Z,24.77
2022-10-31T00:48:48.276Z,19.38
2022-10-31T00:51:15.919Z,14.38
2022-10-31T00:53:43.669Z,21.20
2022-10-31T00:56:11.571Z,25.73
2022-10-31T00:58:39.160Z,22.67
2022-10-31T01:01:09.306Z,16.27
2022-10-31T01:03:39.734Z,11.60
2022-10-31T01:06:13.776Z,18.48
2022-10-31T01:08:41.983Z,22.35
2022-10-31T01:11:16.234Z,24.67
2022-10-31T01:13:45.060Z,19.20
2022-10-31T01:16:14.969Z,23.55
2022-10-31T01:18:43.240Z,21.55
2022-10-31T01:21:12.383Z,19.30
2022-10-31T01:23:40.396Z,20.92
2022-10-31T01:26:14.628Z,16.90
2022-10-31T01:28:52.404Z,14.77
2022-10-31T01:31:22.375Z,14.75
2022-10-31T01:33:50.843Z,22.52
2022-10-31T01:36:25.584Z,25.77
2022-10-31T01:38:56.599Z,16.45
2022-10-31T01:41:27.676Z,15.25
2022-10-31T01:43:57.245Z,29.30
2022-10-31T01:46:38.678Z,23.35
2022-10-31T01:49:15.184Z,24.85
2022-10-31T01:51:49.186Z,27.30
2022-10-31T01:54:20.860Z,29.63
2022-10-31T01:56:55.556Z,25.10
2022-10-31T01:59:25.682Z,25.52
2022-10-31T02:01:53.576Z,28.23
2022-10-31T02:04:23.347Z,22.42
2022-10-31T02:06:53.795Z,25.77
2022-10-31T02:09:24.904Z,21.58
2022-10-31T02:11:58.777Z,17.02
2022-10-31T02:14:28.883Z,24.92
2022-10-31T02:19:52.927Z,31.98
2022-10-31T02:22:39.137Z,20.77
2022-10-31T02:25:48.823Z,28.05
2022-10-31T02:28:38.016Z,37.10
2022-10-31T02:31:36.440Z,35.33
2022-10-31T02:34:31.378Z,28.90
2022-10-31T02:37:13.911Z,21.98
2022-10-31T02:39:56.020Z,23.85
2022-10-31T02:46:20.288Z,27.48
2022-10-31T02:48:49.950Z,18.25
2022-10-31T02:51:18.825Z,19.48
2022-10-31T02:53:46.349Z,27.77
2022-10-31T02:56:19.881Z,19.88
2022-10-31T02:59:02.591Z,21.95
2022-10-31T03:01:30.270Z,22.42
2022-10-31T03:04:35.486Z,27.27
2022-10-31T03:07:24.430Z,28.95
2022-10-31T03:10:28.426Z,21.30
2022-10-31T03:13:17.492Z,23.63
2022-10-31T03:15:48.287Z,20.10
2022-10-31T03:18:30.618Z,21.92
2022-10-31T03:21:11.702Z,30.63
2022-10-31T03:23:41.512Z,23.85
2022-10-31T03:26:11.574Z,17.55
2022-10-31T03:28:54.125Z,35.72
2022-10-31T03:31:25.965Z,25.20
2022-10-31T03:33:55.474Z,28.25
2022-10-31T03:36:23.782Z,24.17
2022-10-31T03:38:52.679Z,22.52
2022-10-31T03:41:24.845Z,19.80
2022-10-31T03:43:59.199Z,18.48
2022-10-31T03:46:27.658Z,20.15
2022-10-31T03:48:59.454Z,25.33
2022-10-31T03:51:46.614Z,22.30
2022-10-31T03:54:17.102Z,27.67
2022-10-31T03:56:57.552Z,22.30
2022-10-31T03:59:35.446Z,24.67
2022-10-31T04:02:16.597Z,31.58
2022-10-31T04:04:47.190Z,26.98
2022-10-31T04:07:15.937Z,41.38
2022-10-31T04:09:47.360Z,33.38
2022-10-31T04:12:17.595Z,24.83
2022-10-31T04:15:05.408Z,25.48
2022-10-31T04:17:40.039Z,27.38
2022-10-31T04:20:08.293Z,23.75
2022-10-31T04:22:36.695Z,23.60
2022-10-31T04:25:04.588Z,31.35
2022-10-31T04:27:32.232Z,29.25
2022-10-31T04:30:00.677Z,23.60
2022-10-31T04:32:28.999Z,29.27
2022-10-31T04:34:57.052Z,23.77
2022-10-31T04:37:24.609Z,32.58
2022-10-31T04:39:52.368Z,21.55
2022-10-31T04:42:38.310Z,24.02
2022-10-31T04:45:08.265Z,20.98
2022-10-31T04:47:37.719Z,19.53
2022-10-31T04:50:05.811Z,20.48
2022-10-31T04:52:43.711Z,31.05
2022-10-31T04:55:14.188Z,21.83
2022-10-31T04:57:49.766Z,26.73
2022-10-31T05:00:21.363Z,15.45
2022-10-31T05:02:53.238Z,22.67
2022-10-31T05:07:51.250Z,22.40
2022-10-31T05:10:23.689Z,24.63
2022-10-31T05:13:01.045Z,24.02
2022-10-31T05:15:50.218Z,21.73
2022-10-31T05:18:36.853Z,25.95
2022-10-31T05:21:33.074Z,14.40
2022-10-31T05:24:03.386Z,23.92
2022-10-31T05:26:31.631Z,21.10
2022-10-31T05:28:59.420Z,28.15
2022-10-31T05:31:27.074Z,14.73
2022-10-31T05:33:55.299Z,26.75
2022-10-31T05:36:55.116Z,28.65
2022-10-31T05:39:24.278Z,21.75
2022-10-31T05:41:56.586Z,23.27
2022-10-31T05:44:27.722Z,25.45
2022-10-31T05:47:12.172Z,26.42
2022-10-31T05:49:58.468Z,14.20
2022-10-31T05:52:48.402Z,22.35
2022-10-31T05:55:33.568Z,18.38
2022-10-31T05:58:12.198Z,16.20
2022-10-31T06:00:42.514Z,17.77
2022-10-31T06:03:12.207Z,23.37
2022-10-31T06:08:26.658Z,12.98
2022-10-31T06:10:56.818Z,16.58
2022-10-31T06:13:45.411Z,19.20
2022-10-31T06:16:21.582Z,28.00
2022-10-31T06:18:49.607Z,13.77
2022-10-31T06:21:19.066Z,14.85
2022-10-31T06:23:49.885Z,20.80
2022-10-31T06:26:53.202Z,18.15
2022-10-31T06:29:22.232Z,19.05
2022-10-31T06:32:03.947Z,26.35
2022-10-31T06:37:01.334Z,19.52
2022-10-31T06:39:30.362Z,20.25
2022-10-31T06:41:58.126Z,13.82
2022-10-31T06:44:28.167Z,17.45
2022-10-31T06:46:56.393Z,15.30
2022-10-31T06:49:44.471Z,21.52
2022-10-31T06:52:16.097Z,12.20
2022-10-31T06:54:43.856Z,16.75
2022-10-31T06:57:11.492Z,17.63
2022-10-31T06:59:40.242Z,14.23
2022-10-31T07:02:11.465Z,29.30
2022-10-31T07:04:40.816Z,12.27
2022-10-31T07:07:09.299Z,16.23
2022-10-31T07:09:39.028Z,24.55
2022-10-31T07:12:07.642Z,17.30
2022-10-31T07:14:39.337Z,20.10
2022-10-31T07:17:07.249Z,20.48
2022-10-31T07:19:41.503Z,12.80
2022-10-31T07:22:10.193Z,22.45
2022-10-31T07:24:39.362Z,19.23
2022-10-31T07:27:25.491Z,13.43
2022-10-31T07:29:54.152Z,8.40
2022-10-31T07:32:21.714Z,16.33
2022-10-31T07:34:55.921Z,15.38
2022-10-31T07:37:28.787Z,16.60
2022-10-31T07:39:57.425Z,20.90
2022-10-31T07:42:24.922Z,16.30
2022-10-31T07:44:55.277Z,15.32
2022-10-31T07:47:52.690Z,12.93
2022-10-31T07:50:38.907Z,17.92
2022-10-31T07:53:25.312Z,12.15
2022-10-31T07:58:44.019Z,11.57
2022-10-31T08:03:48.831Z,17.48
2022-10-31T08:06:42.633Z,18.85
2022-10-31T08:09:39.277Z,17.02
2022-10-31T08:12:19.438Z,22.55
2022-10-31T08:14:47.879Z,15.32
2022-10-31T08:17:18.237Z,21.90
2022-10-31T08:19:55.936Z,11.82
2022-10-31T08:22:29.665Z,12.57
2022-10-31T08:24:57.480Z,15.02
2022-10-31T08:27:25.041Z,15.07
2022-10-31T08:29:54.740Z,11.63
2022-10-31T08:32:24.023Z,16.20
2022-10-31T08:35:10.257Z,28.08
2022-10-31T08:37:58.001Z,15.82
2022-10-31T08:40:29.670Z,14.50
2022-10-31T08:43:02.582Z,15.25
2022-10-31T08:45:32.469Z,11.95
2022-10-31T08:48:02.103Z,13.95
2022-10-31T08:50:33.625Z,19.48
2022-10-31T08:53:06.663Z,21.70
2022-10-31T08:55:36.835Z,6.97
2022-10-31T08:58:12.084Z,14.77
2022-10-31T09:00:47.314Z,15.80
2022-10-31T09:03:24.815Z,10.65
2022-10-31T09:05:57.283Z,18.60
2022-10-31T09:08:25.261Z,9.20
2022-10-31T09:10:53.252Z,8.13
2022-10-31T09:13:41.489Z,14.75
2022-10-31T09:16:44.280Z,11.45
2022-10-31T09:19:18.536Z,11.00
2022-10-31T09:21:47.681Z,7.20
2022-10-31T09:24:15.384Z,19.15
2022-10-31T09:26:44.025Z,17.30
2022-10-31T09:29:19.919Z,14.38
2022-10-31T09:31:56.973Z,13.27
2022-10-31T09:34:29.752Z,12.45
2022-10-31T09:37:04.478Z,12.88
2022-10-31T09:39:32.023Z,18.77
2022-10-31T09:42:13.208Z,15.30
2022-10-31T09:45:10.844Z,21.17
2022-10-31T09:47:45.158Z,14.38
2022-10-31T09:51:14.813Z,12.10
2022-10-31T09:54:10.145Z,13.18
2022-10-31T09:56:39.412Z,13.00
2022-10-31T09:59:16.437Z,7.65
2022-10-31T10:01:52.546Z,9.15
2022-10-31T10:04:38.853Z,10.85
2022-10-31T10:07:25.875Z,12.38
2022-10-31T10:10:24.823Z,17.75
2022-10-31T10:13:19.343Z,14.90
2022-10-31T10:15:46.922Z,14.88
2022-10-31T10:18:14.443Z,14.52
2022-10-31T10:20:44.734Z,11.00
2022-10-31T10:23:27.343Z,11.20
2022-10-31T10:26:43.808Z,10.82
2022-10-31T10:29:26.390Z,13.07
2022-10-31T10:31:56.236Z,12.20
2022-10-31T10:34:49.950Z,13.65
2022-10-31T10:37:23.987Z,16.05
2022-10-31T10:39:57.309Z,18.95
2022-10-31T10:42:46.598Z,9.18
2022-10-31T10:45:38.233Z,15.70
2022-10-31T10:48:17.174Z,11.57
2022-10-31T10:50:53.430Z,9.93
2022-10-31T10:54:00.239Z,8.88
2022-10-31T10:56:51.353Z,7.38
2022-10-31T10:59:22.304Z,6.72
2022-10-31T11:01:52.539Z,13.68
2022-10-31T11:04:41.007Z,15.27
2022-10-31T11:07:11.378Z,15.27
2022-10-31T11:09:39.432Z,10.38
2022-10-31T11:12:17.643Z,15.45
2022-10-31T11:15:01.186Z,12.90
2022-10-31T11:17:37.099Z,13.02
2022-10-31T11:20:06.475Z,9.25
2022-10-31T11:22:34.180Z,16.75
2022-10-31T11:25:01.970Z,10.52
2022-10-31T11:27:29.507Z,11.25
2022-10-31T11:30:06.418Z,13.70
2022-10-31T11:32:34.294Z,15.70
2022-10-31T11:35:09.314Z,9.45
2022-10-31T11:37:44.259Z,12.43
2022-10-31T11:40:23.719Z,12.52
2022-10-31T11:42:53.538Z,8.98
2022-10-31T11:45:23.855Z,11.45
2022-10-31T11:47:59.427Z,14.52
2022-10-31T11:50:40.292Z,11.52
2022-10-31T11:53:34.136Z,5.43
2022-10-31T11:56:28.118Z,11.82
2022-10-31T11:59:03.306Z,12.65
2022-10-31T12:01:33.588Z,15.20
2022-10-31T12:04:10.886Z,13.60
2022-10-31T12:06:41.020Z,16.55
2022-10-31T12:09:29.040Z,11.65
2022-10-31T12:12:11.498Z,8.02
2022-10-31T12:15:05.564Z,13.13
2022-10-31T12:17:59.729Z,12.43
2022-10-31T12:20:33.482Z,11.13
2022-10-31T12:23:09.831Z,8.73
2022-10-31T12:25:45.281Z,15.10
2022-10-31T12:28:18.683Z,8.93
2022-10-31T12:31:14.091Z,16.75
2022-10-31T12:34:18.307Z,15.98
2022-10-31T12:36:58.416Z,14.75
2022-10-31T12:39:51.913Z,8.43
2022-10-31T12:42:37.307Z,14.75
2022-10-31T12:45:17.252Z,8.70
2022-10-31T12:48:05.275Z,10.05
2022-10-31T12:50:59.454Z,12.63
2022-10-31T12:53:52.478Z,13.80
2022-10-31T12:56:32.703Z,12.05
2022-10-31T12:59:27.955Z,14.45
2022-10-31T13:02:19.392Z,10.88
2022-10-31T13:04:57.012Z,16.60
2022-10-31T13:07:49.620Z,8.70
2022-10-31T13:10:35.815Z,12.05
2022-10-31T13:13:27.486Z,13.80
2022-10-31T13:16:00.767Z,8.35
2022-10-31T13:18:39.525Z,21.80
2022-10-31T13:21:18.366Z,7.15
2022-10-31T13:23:51.828Z,11.50
2022-10-31T13:26:39.837Z,15.63
2022-10-31T13:29:07.305Z,12.88
2022-10-31T13:31:34.923Z,19.00
2022-10-31T13:34:10.042Z,14.18
2022-10-31T13:36:49.583Z,11.23
2022-10-31T13:42:18.522Z,9.45
2022-10-31T13:44:46.255Z,11.95
2022-10-31T13:47:24.882Z,15.25
2022-10-31T13:49:52.566Z,11.65
2022-10-31T13:52:25.612Z,5.32
2022-10-31T13:54:57.613Z,13.52
2022-10-31T13:57:44.012Z,10.98
2022-10-31T14:00:20.852Z,8.65
2022-10-31T14:02:58.316Z,12.40
2022-10-31T14:05:33.111Z,10.63
2022-10-31T14:08:04.631Z,9.27
2022-10-31T14:10:36.441Z,6.63
2022-10-31T14:13:15.141Z,9.25
2022-10-31T14:15:53.730Z,10.25
2022-10-31T14:18:31.334Z,13.55
2022-10-31T14:20:59.162Z,8.80
2022-10-31T14:23:41.393Z,9.35
2022-10-31T14:26:26.714Z,9.65
2022-10-31T14:28:56.797Z,9.07
2022-10-31T14:31:40.205Z,8.10
2022-10-31T14:34:22.371Z,8.60
2022-10-31T14:36:59.151Z,11.95
2022-10-31T14:39:46.807Z,11.60
2022-10-31T14:42:36.150Z,10.52
2022-10-31T14:45:19.341Z,4.17
2022-10-31T14:47:54.035Z,7.63
2022-10-31T14:50:35.576Z,12.88
2022-10-31T14:53:05.456Z,8.45
2022-10-31T14:55:33.559Z,9.23
2022-10-31T14:58:05.235Z,8.35
2022-10-31T15:00:34.123Z,10.10
2022-10-31T15:03:14.067Z,9.68
2022-10-31T15:08:35.903Z,5.20
2022-10-31T15:11:21.475Z,11.60
2022-10-31T15:13:57.651Z,9.30
2022-10-31T15:16:44.450Z,18.30
2022-10-31T15:19:16.893Z,12.88
2022-10-31T15:21:48.787Z,13.05
2022-10-31T15:24:17.260Z,17.73
2022-10-31T15:26:48.412Z,12.57
2022-10-31T15:29:18.707Z,11.40
2022-10-31T15:31:59.542Z,16.83
2022-10-31T15:34:42.195Z,9.35
2022-10-31T15:37:14.869Z,15.02
2022-10-31T15:39:43.562Z,7.63
2022-10-31T15:42:40.208Z,10.75
2022-10-31T15:45:11.837Z,11.85
2022-10-31T15:47:45.720Z,8.50
2022-10-31T15:50:24.646Z,6.80
2022-10-31T15:52:52.485Z,6.97
2022-10-31T15:55:26.294Z,14.52
2022-10-31T15:57:58.003Z,6.18
2022-10-31T16:00:34.880Z,9.13
2022-10-31T16:03:13.777Z,7.57
2022-10-31T16:05:54.991Z,7.70
2022-10-31T16:08:48.198Z,12.38
2022-10-31T16:11:24.706Z,12.18
2022-10-31T16:14:03.043Z,8.63
2022-10-31T16:16:35.654Z,7.88
2022-10-31T16:19:06.374Z,6.10
2022-10-31T16:21:37.210Z,19.27
2022-10-31T16:24:30.679Z,8.25
2022-10-31T16:27:06.851Z,11.27
2022-10-31T16:29:44.238Z,14.63
2022-10-31T16:32:36.072Z,4.10
2022-10-31T16:35:29.084Z,11.38
2022-10-31T16:37:56.735Z,9.63
2022-10-31T16:40:25.340Z,10.13
2022-10-31T16:42:53.358Z,10.35
2022-10-31T16:45:23.645Z,12.57
2022-10-31T16:47:52.234Z,13.18
2022-10-31T16:50:22.000Z,6.90
2022-10-31T16:53:08.755Z,7.78
2022-10-31T16:55:48.452Z,10.25
2022-10-31T16:58:26.349Z,8.13
2022-10-31T17:00:54.655Z,9.63
2022-10-31T17:03:22.508Z,8.80
2022-10-31T17:05:50.384Z,7.95
2022-10-31T17:08:17.975Z,8.95
2022-10-31T17:10:47.941Z,9.93
2022-10-31T17:13:22.030Z,12.20
2022-10-31T17:15:52.594Z,5.40
2022-10-31T17:18:24.454Z,9.13
2022-10-31T17:20:59.952Z,12.63
2022-10-31T17:23:28.713Z,15.25
2022-10-31T17:25:57.240Z,10.07
2022-10-31T17:28:26.695Z,8.18
2022-10-31T17:30:55.642Z,12.77
2022-10-31T17:33:23.438Z,13.68
2022-10-31T17:35:52.001Z,11.18
2022-10-31T17:38:20.354Z,15.75
2022-10-31T17:43:20.673Z,10.85
2022-10-31T17:45:48.206Z,12.65
2022-10-31T17:48:15.816Z,8.70
2022-10-31T17:50:43.529Z,7.05
2022-10-31T17:53:11.152Z,5.15
2022-10-31T17:55:38.770Z,11.75
2022-10-31T17:58:06.696Z,10.10
2022-10-31T18:00:34.674Z,11.55
2022-10-31T18:03:04.509Z,10.57
2022-10-31T18:05:32.581Z,8.88
2022-10-31T18:08:03.715Z,7.43
2022-10-31T18:10:32.343Z,16.00
2022-10-31T18:13:00.317Z,8.88
2022-10-31T18:15:28.205Z,8.00
2022-10-31T18:17:59.247Z,7.95
2022-10-31T18:20:30.291Z,10.10
2022-10-31T18:22:57.798Z,8.18
2022-10-31T18:25:25.374Z,14.90
2022-10-31T18:27:53.052Z,10.60
2022-10-31T18:30:20.606Z,7.45
2022-10-31T18:32:52.136Z,13.85
2022-10-31T18:35:19.864Z,14.52
2022-10-31T18:37:47.374Z,13.05
2022-10-31T18:40:15.122Z,10.38
2022-10-31T18:42:42.795Z,12.57
2022-10-31T18:45:23.247Z,8.82
2022-10-31T18:47:58.606Z,12.35
2022-10-31T18:50:26.473Z,7.85
2022-10-31T18:52:54.133Z,10.82
2022-10-31T18:55:21.733Z,12.73
2022-10-31T18:57:49.487Z,14.52
2022-10-31T19:00:18.632Z,17.88
2022-10-31T19:02:46.375Z,18.87
2022-10-31T19:05:14.010Z,8.35
2022-10-31T19:07:41.586Z,8.85
2022-10-31T19:10:09.395Z,12.52
2022-10-31T19:12:37.114Z,15.45
2022-10-31T19:15:06.418Z,12.00
2022-10-31T19:17:33.957Z,13.05
2022-10-31T19:20:01.655Z,7.75
2022-10-31T19:22:31.599Z,11.57
2022-10-31T19:24:59.328Z,20.02
2022-10-31T19:27:28.164Z,19.70
2022-10-31T19:29:55.669Z,19.42
2022-10-31T19:32:23.443Z,4.85
2022-10-31T19:34:51.013Z,5.97
2022-10-31T19:37:18.919Z,6.65
2022-10-31T19:39:46.536Z,8.27
2022-10-31T19:42:14.145Z,7.50
2022-10-31T19:44:42.059Z,13.27
2022-10-31T19:47:10.779Z,7.57
2022-10-31T19:49:38.296Z,10.63
2022-10-31T19:52:05.790Z,5.07
2022-10-31T19:54:33.320Z,4.63
2022-10-31T19:57:00.857Z,10.70
2022-10-31T19:59:28.517Z,3.60
2022-10-31T20:01:56.171Z,6.43
2022-10-31T20:04:24.109Z,4.88
2022-10-31T20:06:52.001Z,7.07
2022-10-31T20:09:19.721Z,7.57
2022-10-31T20:11:47.482Z,8.05
2022-10-31T20:14:17.682Z,7.22
2022-10-31T20:16:46.064Z,9.25
2022-10-31T20:19:14.048Z,8.57
2022-10-31T20:21:42.227Z,8.85
2022-10-31T20:24:10.856Z,8.45
2022-10-31T20:26:40.912Z,11.70
2022-10-31T20:31:40.076Z,8.65
2022-10-31T20:34:07.748Z,6.30
2022-10-31T20:36:36.781Z,9.68
2022-10-31T20:39:04.753Z,10.52
2022-10-31T20:41:32.697Z,12.32
2022-10-31T20:44:00.248Z,8.43
2022-10-31T20:46:28.257Z,10.93
2022-10-31T20:48:55.873Z,11.55
2022-10-31T20:51:28.610Z,10.23
2022-10-31T20:53:58.087Z,6.50
2022-10-31T20:56:27.950Z,22.38
2022-10-31T20:58:56.661Z,17.48
2022-10-31T21:01:30.047Z,9.00
2022-10-31T21:03:58.962Z,7.35
2022-10-31T21:06:27.447Z,12.32
2022-10-31T21:08:56.037Z,8.25
2022-10-31T21:11:26.058Z,7.60
2022-10-31T21:16:29.738Z,12.05
2022-10-31T21:18:59.338Z,11.13
2022-10-31T21:21:32.372Z,4.95
2022-10-31T21:24:05.154Z,6.88
2022-10-31T21:26:37.835Z,10.65
2022-10-31T21:29:07.574Z,10.82
2022-10-31T21:31:36.936Z,8.27
2022-10-31T21:34:05.264Z,7.32
2022-10-31T21:36:33.834Z,8.90
2022-10-31T21:39:01.770Z,7.15
2022-10-31T21:41:29.457Z,14.10
2022-10-31T21:43:57.218Z,17.20
2022-10-31T21:46:30.741Z,13.43
2022-10-31T21:48:59.351Z,17.73
2022-10-31T21:51:29.498Z,16.23
2022-10-31T21:56:43.777Z,16.80
2022-10-31T21:59:11.558Z,18.30
2022-10-31T22:01:39.477Z,25.05
2022-10-31T22:04:07.495Z,25.63
2022-10-31T22:06:35.851Z,28.90
2022-10-31T22:09:05.520Z,24.20
2022-10-31T22:11:34.420Z,27.45
2022-10-31T22:14:02.841Z,25.63
2022-10-31T22:16:31.426Z,30.13
2022-10-31T22:19:00.427Z,33.17
2022-10-31T22:21:28.531Z,35.95
2022-10-31T22:24:01.841Z,34.53
2022-10-31T22:26:33.092Z,30.75
2022-10-31T22:29:02.827Z,32.72
2022-10-31T22:31:32.036Z,28.00
2022-10-31T22:34:00.181Z,33.97
2022-10-31T22:36:29.914Z,33.95
2022-10-31T22:38:58.701Z,34.60
2022-10-31T22:41:29.059Z,37.83
2022-10-31T22:43:57.208Z,33.83
2022-10-31T22:46:28.410Z,43.75
2022-10-31T22:48:59.075Z,47.55
2022-10-31T22:51:32.215Z,46.95
2022-10-31T22:53:59.908Z,40.67
2022-10-31T22:56:33.367Z,45.65
2022-10-31T22:59:02.257Z,38.65
2022-10-31T23:01:33.797Z,41.85
2022-10-31T23:04:02.243Z,40.05
2022-10-31T23:06:31.694Z,40.83
2022-10-31T23:09:01.312Z,43.42
2022-10-31T23:11:33.330Z,46.38
2022-10-31T23:14:09.109Z,41.17
2022-10-31T23:16:42.098Z,44.28
2022-10-31T23:19:11.338Z,45.08
2022-10-31T23:21:54.749Z,47.22
2022-10-31T23:24:23.316Z,39.90
2022-10-31T23:27:08.369Z,46.33
2022-10-31T23:29:42.029Z,44.13
2022-10-31T23:32:25.404Z,45.13
2022-10-31T23:34:58.546Z,46.95
2022-10-31T23:37:31.837Z,55.28
2022-10-31T23:39:59.960Z,47.97
2022-10-31T23:42:28.137Z,52.03
2022-10-31T23:44:56.208Z,46.67
2022-10-31T23:47:24.110Z,45.83
2022-10-31T23:49:52.044Z,54.65
2022-10-31T23:52:19.900Z,46.63
2022-10-31T23:54:47.649Z,41.88
2022-10-31T23:57:16.051Z,40.05
2022-10-31T23:59:44.591Z,35.95
